GVACGVNP

Guest
Details From GVAC - Sal Amilcar Cabral Intl
To GVNP - PRAIA INTERNATIONAL
Flight Number -
Tags generated
Created
Modified
Stats Distance 113 nm / 209 km
Max Altitude 0 ft / 0 m
Waypoints 3
Social Downloads 16
Likes 0
Share

Download

Looking for another format? Having issues loading an existing format? Contact us
Advertisement - Login to hide

Notes

Basic altitude profile: - Ascent Rate: 2500ft/min - Ascent Speed: 250kts - Cruise Altitude: 35000ft - Cruise Speed: 420kts - Descent Rate: 1500ft/min - Descent Speed: 250kts Options: - Use NATs: yes - Use PACOTS: yes - Use low airways: yes - Use high airways: yes

Route

GVAC CVS GVNP

ID Type Via Altitude (ft/m) Position (lat/lon) Dist (leg/tot) Name
O GVAC APT - 0 / 0 16.73821 / -22.95050 - / 0 nm Sal Amilcar Cabral Intl
CVS VOR - 0 / 0 16.73677 / -22.95105 0 / 0 nm SAL VOR-DME
O GVNP APT - 0 / 0 14.93258 / -23.48919 112 / 112 nm PRAIA INTERNATIONAL

Altitude Profile

Advertisement - Login to hide

GVAC

Details ICAO GVAC (SID)
Name Espargos-Amilcar Cabral Intl
Region Cape Verde
Timezone Atlantic/Cape_Verde (UTC-1.0)
Stats Elevation 184 ft / 56 m (AMSL)
Location 16.737600° -22.950000°
Runways 1
Magnetic Variation 8.841° W

METAR

GVAC 140100Z 04016KT 9999 FEW014 SCT200 22/19 Q1015 NOSIG

Decode

TAF

TAF GVAC 132300Z 1400/1506 04014KT 9999 FEW014

Decode

Departure Runways

ID Width Length Bearing (true/mag) Surface Threshold Overrun Markings Lighting
01 148 ft / 45 m 10,781 ft / 3,286 m 359.61° / 8.45° ASPHALT 879 ft / 268 m 0 ft / 0 m PREC-APP CENTERLINE EDGE THRESHOLD MALSR TDZ
19 148 ft / 45 m 10,781 ft / 3,286 m 179.61° / 188.45° ASPHALT 0 ft / 0 m 0 ft / 0 m PREC-APP CENTERLINE EDGE THRESHOLD MALSR TDZ

GVNP

Details ICAO GVNP (RAI)
Name Praia Nelson Mandela Intl
Region Cape Verde
Timezone Atlantic/Cape_Verde (UTC-1.0)
Stats Elevation 324 ft / 99 m (AMSL)
Location 14.941100° -23.484700°
Runways 1
Magnetic Variation 9.480° W

METAR

GVNP 140100Z 03006KT CAVOK 23/17 Q1015 NOSIG

Decode

TAF

TAF GVNP 132300Z 1400/1506 02013KT 9999 FEW014

Decode

Destination Runways

ID Width Length Bearing (true/mag) Surface Threshold Overrun Markings Lighting
03 148 ft / 45 m 6,896 ft / 2,102 m 21.85° / 31.33° ASPHALT 650 ft / 198 m 0 ft / 0 m PREC-APP CENTERLINE EDGE THRESHOLD MALS
21 148 ft / 45 m 6,896 ft / 2,102 m 201.85° / 211.33° ASPHALT 0 ft / 0 m 0 ft / 0 m PREC-APP CENTERLINE EDGE THRESHOLD SALS

Popular Alternatives